Time;durP1;ratioP1;P1;durP2;ratioP2;P2;SDS_P1;SDS_P2;PMS_P1;PMS_P2;Temp;Humidity;BMP_temperature;BMP_pressure;BME280_temperature;BME280_humidity;BME280_pressure;Samples;Min_cycle;Max_cycle;Signal;HPM_P1;HPM_P2
2022/09/30 00:01:38;;;;;;;19.73;17.83;;;4.50;99.90;;;;;;5096135;28;20450;-67
2022/09/30 00:04:06;;;;;;;21.10;18.87;;;4.50;99.90;;;;;;5096807;28;20458;-68
2022/09/30 00:06:35;;;;;;;21.10;19.37;;;4.50;99.90;;;;;;5091942;28;20457;-68
2022/09/30 00:09:02;;;;;;;21.80;19.50;;;4.50;99.90;;;;;;5093663;28;20457;-67
2022/09/30 00:11:32;;;;;;;19.57;17.87;;;4.50;99.90;;;;;;5094076;28;20955;-68
2022/09/30 00:14:00;;;;;;;19.83;17.87;;;4.60;99.90;;;;;;5090015;28;20481;-67
2022/09/30 00:16:32;;;;;;;20.20;18.33;;;4.50;99.90;;;;;;5092288;28;20492;-67
2022/09/30 00:19:00;;;;;;;19.93;18.03;;;4.50;99.90;;;;;;5093663;28;20543;-67
2022/09/30 00:21:28;;;;;;;20.70;17.90;;;4.40;99.90;;;;;;5090802;28;21022;-67
2022/09/30 00:23:55;;;;;;;19.70;18.00;;;4.40;99.90;;;;;;5091941;28;20457;-68
2022/09/30 00:26:23;;;;;;;21.53;19.43;;;4.40;99.90;;;;;;5089180;28;20857;-69
2022/09/30 00:28:52;;;;;;;19.67;17.87;;;4.40;99.90;;;;;;5090664;28;20485;-68
2022/09/30 00:31:20;;;;;;;21.53;19.47;;;4.30;99.90;;;;;;5098556;28;20513;-68
2022/09/30 00:34:05;;;;;;;20.03;18.17;;;4.30;99.90;;;;;;5092186;28;20458;-68
2022/09/30 00:36:33;;;;;;;18.53;17.00;;;4.30;99.90;;;;;;5091403;28;20847;-68
2022/09/30 00:39:00;;;;;;;19.50;17.67;;;4.40;99.90;;;;;;5089726;28;21711;-68
2022/09/30 00:41:28;;;;;;;21.90;19.60;;;4.40;99.90;;;;;;5088144;28;20774;-68
2022/09/30 00:43:55;;;;;;;20.87;18.70;;;4.40;99.90;;;;;;5096011;28;20467;-68
2022/09/30 00:46:31;;;;;;;20.17;18.50;;;4.40;99.90;;;;;;5093356;28;20450;-67
2022/09/30 00:49:06;;;;;;;19.90;18.23;;;4.40;99.90;;;;;;5088543;28;20802;-68
2022/09/30 00:51:36;;;;;;;19.70;18.00;;;4.50;99.90;;;;;;5093047;28;20485;-67
2022/09/30 00:54:07;;;;;;;19.83;17.97;;;4.40;99.90;;;;;;5091829;28;20453;-68
2022/09/30 00:56:38;;;;;;;20.07;17.53;;;4.40;99.90;;;;;;5098539;28;20492;-67
2022/09/30 00:59:10;;;;;;;20.63;18.93;;;4.40;99.90;;;;;;5091624;28;20454;-67
2022/09/30 01:01:40;;;;;;;20.20;18.37;;;4.40;99.90;;;;;;5092381;28;20851;-67
2022/09/30 01:04:11;;;;;;;19.73;18.07;;;4.30;99.90;;;;;;5093045;28;20815;-67
2022/09/30 01:06:38;;;;;;;19.63;17.90;;;4.30;99.90;;;;;;5089536;28;20527;-67
2022/09/30 01:09:05;;;;;;;20.47;18.37;;;4.40;99.90;;;;;;5089643;28;20462;-67
2022/09/30 01:11:32;;;;;;;20.63;18.70;;;4.40;99.90;;;;;;5090352;28;20963;-68
2022/09/30 01:14:02;;;;;;;19.73;18.00;;;4.40;99.90;;;;;;5102227;28;20840;-67
2022/09/30 01:16:55;;;;;;;20.47;18.43;;;4.40;99.90;;;;;;5101311;28;20951;-67
2022/09/30 01:19:46;;;;;;;18.37;17.07;;;4.30;99.90;;;;;;5099658;28;20461;-67
2022/09/30 01:22:33;;;;;;;17.63;16.33;;;4.20;99.90;;;;;;5096634;28;20469;-67
2022/09/30 01:25:23;;;;;;;19.37;17.57;;;4.30;99.90;;;;;;5098657;28;20469;-67
2022/09/30 01:28:28;;;;;;;19.97;17.83;;;4.20;99.90;;;;;;5094929;28;20484;-67
2022/09/30 01:31:09;;;;;;;19.03;17.37;;;4.10;99.90;;;;;;5097081;28;20460;-67
2022/09/30 01:33:45;;;;;;;16.93;15.60;;;4.20;99.90;;;;;;5098726;28;20469;-67
2022/09/30 01:36:25;;;;;;;17.37;16.13;;;4.10;99.90;;;;;;5096519;28;20458;-67
2022/09/30 01:39:06;;;;;;;19.80;18.20;;;4.00;99.90;;;;;;5095800;28;20991;-67
2022/09/30 01:41:42;;;;;;;19.43;17.67;;;4.10;99.90;;;;;;5099696;28;20465;-67
2022/09/30 01:44:12;;;;;;;19.33;17.83;;;4.10;99.90;;;;;;5098878;28;20454;-68
2022/09/30 01:46:46;;;;;;;18.90;17.20;;;4.10;99.90;;;;;;5098704;28;21063;-67
2022/09/30 01:49:19;;;;;;;19.20;17.50;;;4.10;99.90;;;;;;5097436;28;20488;-67
2022/09/30 01:51:55;;;;;;;18.90;17.40;;;4.00;99.90;;;;;;5092698;28;20492;-67
2022/09/30 01:54:31;;;;;;;20.90;19.20;;;4.00;99.90;;;;;;5096939;28;20484;-67
2022/09/30 01:57:04;;;;;;;21.20;19.20;;;4.10;99.90;;;;;;5098568;28;20483;-68
2022/09/30 01:59:35;;;;;;;19.47;17.33;;;4.10;99.90;;;;;;5097727;28;20463;-67
2022/09/30 02:02:09;;;;;;;19.80;18.20;;;4.10;99.90;;;;;;5093114;28;20465;-67
2022/09/30 02:04:41;;;;;;;19.63;18.13;;;3.90;99.90;;;;;;5093182;28;20817;-67
2022/09/30 02:07:12;;;;;;;19.03;17.47;;;3.90;99.90;;;;;;5098467;28;20461;-67
2022/09/30 02:09:42;;;;;;;19.90;18.40;;;3.90;99.90;;;;;;5096400;28;20462;-68
2022/09/30 02:12:15;;;;;;;19.50;17.57;;;3.90;99.90;;;;;;5095600;28;20470;-67
2022/09/30 02:14:47;;;;;;;19.40;17.80;;;3.80;99.90;;;;;;5097771;28;20821;-67
2022/09/30 02:17:19;;;;;;;20.50;18.77;;;3.70;99.90;;;;;;5095449;28;20481;-67
2022/09/30 02:19:50;;;;;;;19.53;17.77;;;3.70;99.90;;;;;;5092083;28;21027;-67
2022/09/30 02:22:20;;;;;;;18.90;17.50;;;3.70;99.90;;;;;;5102138;28;20526;-68
2022/09/30 02:24:52;;;;;;;19.00;17.60;;;3.70;99.90;;;;;;5093438;28;20465;-67
2022/09/30 02:27:27;;;;;;;20.13;18.23;;;3.70;99.90;;;;;;5097664;28;20596;-67
2022/09/30 02:29:58;;;;;;;19.50;17.70;;;3.70;99.90;;;;;;5098641;28;20595;-68
2022/09/30 02:32:31;;;;;;;20.40;18.80;;;3.70;99.90;;;;;;5093813;28;20461;-68
2022/09/30 02:35:02;;;;;;;20.07;18.47;;;3.70;99.90;;;;;;5098250;28;20480;-68
2022/09/30 02:37:34;;;;;;;19.77;17.97;;;3.70;99.90;;;;;;5092875;28;20491;-69
2022/09/30 02:40:06;;;;;;;18.93;17.43;;;3.70;99.90;;;;;;5092823;28;20814;-67
2022/09/30 02:42:33;;;;;;;18.93;17.20;;;3.60;99.90;;;;;;5097120;28;20456;-67
2022/09/30 02:45:02;;;;;;;19.67;18.03;;;3.60;99.90;;;;;;5095918;28;20469;-68
2022/09/30 02:47:38;;;;;;;19.63;18.17;;;3.60;99.90;;;;;;5096438;28;20969;-68
2022/09/30 02:50:11;;;;;;;20.60;18.90;;;3.60;99.90;;;;;;5093679;28;20458;-69
2022/09/30 02:52:48;;;;;;;19.40;17.77;;;3.60;99.90;;;;;;5098181;28;20477;-68
2022/09/30 02:55:19;;;;;;;19.07;17.37;;;3.60;99.90;;;;;;5094306;28;20820;-68
2022/09/30 02:57:59;;;;;;;20.40;18.40;;;3.60;99.90;;;;;;5095233;28;20474;-69
2022/09/30 03:00:27;;;;;;;19.33;17.73;;;3.70;99.90;;;;;;5092893;28;20484;-68
2022/09/30 03:03:01;;;;;;;18.83;17.33;;;3.80;99.90;;;;;;5092338;28;20461;-68
2022/09/30 03:05:29;;;;;;;19.73;18.03;;;3.80;99.90;;;;;;5092390;28;20809;-68
2022/09/30 03:07:56;;;;;;;19.57;18.07;;;3.70;99.90;;;;;;5097755;28;20959;-68
2022/09/30 03:10:24;;;;;;;18.93;17.30;;;3.70;99.90;;;;;;5090582;28;20462;-68
2022/09/30 03:13:09;;;;;;;17.27;16.07;;;3.60;99.90;;;;;;5099241;28;20462;-68
2022/09/30 03:15:48;;;;;;;18.90;17.50;;;3.60;99.90;;;;;;5099362;28;20457;-68
2022/09/30 03:18:32;;;;;;;19.23;17.70;;;3.50;99.90;;;;;;5092699;28;20481;-67
2022/09/30 03:21:12;;;;;;;17.97;16.60;;;3.60;99.90;;;;;;5091574;28;20473;-68
2022/09/30 03:23:59;;;;;;;18.97;17.40;;;3.70;99.90;;;;;;5094901;28;20458;-68
2022/09/30 03:26:36;;;;;;;17.50;16.30;;;3.70;99.90;;;;;;5095583;28;20461;-68
2022/09/30 03:29:10;;;;;;;19.17;17.37;;;3.70;99.90;;;;;;5091350;28;20504;-68
2022/09/30 03:31:47;;;;;;;19.33;17.27;;;3.60;99.90;;;;;;5088794;28;20462;-68
2022/09/30 03:34:21;;;;;;;17.87;16.57;;;3.70;99.90;;;;;;5093967;28;20806;-68
2022/09/30 03:36:55;;;;;;;18.53;17.10;;;3.60;99.90;;;;;;5099284;28;20485;-68
2022/09/30 03:39:26;;;;;;;18.43;16.93;;;3.60;99.90;;;;;;5097877;28;20485;-68
2022/09/30 03:41:58;;;;;;;18.50;17.00;;;3.60;99.90;;;;;;5093258;28;20540;-68
2022/09/30 03:44:29;;;;;;;19.73;18.03;;;3.50;99.90;;;;;;5092203;28;20832;-68
2022/09/30 03:47:00;;;;;;;19.17;17.37;;;3.50;99.90;;;;;;5091946;28;20819;-68
2022/09/30 03:49:32;;;;;;;19.33;17.80;;;3.60;99.90;;;;;;5091701;28;20466;-67
2022/09/30 03:52:00;;;;;;;19.43;17.93;;;3.60;99.90;;;;;;5093015;28;20991;-67
2022/09/30 03:54:29;;;;;;;18.93;17.40;;;3.60;99.90;;;;;;5094121;28;20566;-68
2022/09/30 03:56:57;;;;;;;19.83;17.83;;;3.70;99.90;;;;;;5095421;28;20460;-68
2022/09/30 03:59:27;;;;;;;25.80;17.17;;;3.70;99.90;;;;;;5097688;28;20489;-68
2022/09/30 04:01:55;;;;;;;19.67;17.97;;;3.80;99.90;;;;;;5092011;28;20458;-67
2022/09/30 04:04:22;;;;;;;17.70;16.40;;;3.70;99.90;;;;;;5101704;28;20941;-68
2022/09/30 04:06:51;;;;;;;18.93;17.43;;;3.70;99.90;;;;;;5096334;28;20462;-68
2022/09/30 04:09:17;;;;;;;18.97;17.27;;;3.60;99.90;;;;;;5096875;28;20464;-68
2022/09/30 04:11:45;;;;;;;20.23;18.40;;;3.70;99.90;;;;;;5092635;28;20473;-68
2022/09/30 04:14:12;;;;;;;20.37;18.47;;;3.80;99.90;;;;;;5096512;28;20887;-67
2022/09/30 04:16:40;;;;;;;17.30;16.00;;;3.90;99.90;;;;;;5096220;28;20466;-68
2022/09/30 04:19:07;;;;;;;19.43;17.70;;;3.80;99.90;;;;;;5083108;28;20576;-68
2022/09/30 04:21:33;;;;;;;19.50;17.80;;;3.80;99.90;;;;;;5090701;28;20853;-68
2022/09/30 04:24:02;;;;;;;18.17;16.57;;;3.80;99.90;;;;;;5097446;28;20457;-68
2022/09/30 04:26:29;;;;;;;18.07;16.53;;;3.70;99.90;;;;;;5091647;28;20462;-68
2022/09/30 04:28:57;;;;;;;20.70;16.97;;;3.60;99.90;;;;;;5098017;28;21000;-69
2022/09/30 04:31:25;;;;;;;18.57;17.17;;;3.50;99.90;;;;;;5090169;28;20576;-68
2022/09/30 04:33:52;;;;;;;19.60;17.97;;;3.50;99.90;;;;;;5091178;28;20458;-68
2022/09/30 04:36:20;;;;;;;18.40;16.80;;;3.50;99.90;;;;;;5089401;28;20476;-68
2022/09/30 04:38:46;;;;;;;18.10;16.70;;;3.50;99.90;;;;;;5089051;28;20477;-68
2022/09/30 04:41:16;;;;;;;17.87;16.57;;;3.40;99.90;;;;;;5089695;28;20470;-68
2022/09/30 04:43:45;;;;;;;18.23;16.97;;;3.40;99.90;;;;;;5090574;28;20550;-68
2022/09/30 04:46:13;;;;;;;17.90;16.50;;;3.40;99.90;;;;;;5090170;28;20461;-69
2022/09/30 04:48:44;;;;;;;17.83;16.53;;;3.50;99.90;;;;;;5089917;28;20478;-68
2022/09/30 04:51:11;;;;;;;18.50;17.00;;;3.50;99.90;;;;;;5092776;28;21087;-68
2022/09/30 04:53:39;;;;;;;19.47;17.77;;;3.60;99.90;;;;;;5090444;28;20489;-67
2022/09/30 04:56:06;;;;;;;18.90;17.30;;;3.70;99.90;;;;;;5091515;28;20464;-68
2022/09/30 04:58:36;;;;;;;19.37;17.77;;;3.70;99.90;;;;;;5094955;28;20498;-68
2022/09/30 05:01:05;;;;;;;19.63;17.73;;;3.90;99.90;;;;;;5096049;28;20462;-67
2022/09/30 05:03:33;;;;;;;18.20;16.70;;;4.00;99.90;;;;;;5092600;28;20461;-67
2022/09/30 05:06:00;;;;;;;18.57;16.77;;;4.10;99.90;;;;;;5092151;28;20470;-67
2022/09/30 05:08:26;;;;;;;19.03;17.43;;;4.20;99.90;;;;;;5092856;28;20833;-67
2022/09/30 05:10:56;;;;;;;17.47;16.20;;;4.20;99.90;;;;;;5094261;28;20457;-67
2022/09/30 05:13:24;;;;;;;17.43;16.13;;;4.20;99.90;;;;;;5093874;28;20706;-67
2022/09/30 05:15:53;;;;;;;18.30;16.80;;;4.10;99.90;;;;;;5087984;28;20469;-66
2022/09/30 05:18:20;;;;;;;18.97;17.23;;;4.10;99.90;;;;;;5088609;28;20541;-67
2022/09/30 05:20:50;;;;;;;18.70;17.00;;;4.10;99.90;;;;;;5089558;28;20469;-67
2022/09/30 05:23:17;;;;;;;18.50;16.90;;;4.10;99.90;;;;;;5093163;28;20556;-67
2022/09/30 05:25:44;;;;;;;19.67;18.00;;;4.00;99.90;;;;;;5091580;28;20568;-66
2022/09/30 05:28:12;;;;;;;18.53;17.10;;;4.10;99.90;;;;;;5092293;28;20514;-67
2022/09/30 05:30:40;;;;;;;18.90;17.60;;;4.10;99.90;;;;;;5091367;28;20461;-67
2022/09/30 05:33:09;;;;;;;19.70;18.10;;;4.10;99.90;;;;;;5090830;28;20804;-67
2022/09/30 05:35:36;;;;;;;34.10;25.43;;;4.20;99.90;;;;;;5095793;28;20811;-66
2022/09/30 05:38:03;;;;;;;26.63;23.70;;;4.10;99.90;;;;;;5089326;28;20493;-66
2022/09/30 05:40:30;;;;;;;27.43;22.70;;;4.10;99.90;;;;;;5086474;28;20965;-67
2022/09/30 05:42:57;;;;;;;22.43;19.77;;;4.00;99.90;;;;;;5089939;28;20469;-67
2022/09/30 05:45:25;;;;;;;24.90;22.57;;;3.90;99.90;;;;;;5086623;28;20996;-66
2022/09/30 05:47:52;;;;;;;25.10;23.03;;;3.90;99.90;;;;;;5087609;28;20557;-68
2022/09/30 05:50:21;;;;;;;23.80;21.63;;;3.80;99.90;;;;;;5087887;28;20965;-67
2022/09/30 05:52:49;;;;;;;23.70;21.47;;;3.80;99.90;;;;;;5086427;28;20474;-66
2022/09/30 05:55:16;;;;;;;23.60;21.50;;;3.70;99.90;;;;;;5095654;28;20457;-65
2022/09/30 05:57:44;;;;;;;21.57;19.70;;;3.70;99.90;;;;;;5090587;28;20461;-65
2022/09/30 06:00:12;;;;;;;24.60;21.80;;;3.80;99.90;;;;;;5093613;28;20454;-66
2022/09/30 06:02:40;;;;;;;27.93;25.17;;;3.80;99.90;;;;;;5087891;28;21006;-69
2022/09/30 06:05:08;;;;;;;22.77;20.70;;;3.80;99.90;;;;;;5096338;28;20490;-69
2022/09/30 06:07:39;;;;;;;20.40;18.47;;;3.90;99.90;;;;;;5086742;28;20813;-69
2022/09/30 06:10:11;;;;;;;21.50;19.73;;;4.00;99.90;;;;;;5091606;28;20553;-69
2022/09/30 06:12:37;;;;;;;21.57;19.80;;;4.10;99.90;;;;;;5098882;28;20453;-69
2022/09/30 06:15:05;;;;;;;23.50;21.20;;;4.20;99.90;;;;;;5097505;28;20581;-69
2022/09/30 06:17:32;;;;;;;28.63;25.53;;;4.30;99.90;;;;;;5094798;28;20824;-68
2022/09/30 06:19:59;;;;;;;27.77;25.10;;;4.30;99.90;;;;;;5093490;28;20484;-69
2022/09/30 06:22:26;;;;;;;26.20;23.60;;;4.50;99.90;;;;;;5086319;28;20796;-69
2022/09/30 06:24:54;;;;;;;21.03;19.13;;;4.60;99.90;;;;;;5095092;28;20955;-68
2022/09/30 06:27:21;;;;;;;22.43;20.23;;;4.60;99.90;;;;;;5094932;28;20792;-69
2022/09/30 06:29:49;;;;;;;23.83;21.60;;;4.70;99.90;;;;;;5091368;28;20557;-69
2022/09/30 06:32:16;;;;;;;22.67;20.67;;;4.70;99.90;;;;;;5097760;28;20466;-68
2022/09/30 06:34:43;;;;;;;24.73;20.00;;;4.80;99.90;;;;;;5091874;28;20631;-69
2022/09/30 06:37:14;;;;;;;22.70;20.47;;;4.90;99.90;;;;;;5094538;28;20533;-69
2022/09/30 06:39:41;;;;;;;18.97;17.23;;;4.90;99.90;;;;;;5089259;28;20844;-68
2022/09/30 06:42:10;;;;;;;24.37;18.53;;;5.00;99.90;;;;;;5085006;28;20455;-68
2022/09/30 06:44:37;;;;;;;21.00;19.10;;;5.00;99.90;;;;;;5091495;28;20599;-68
2022/09/30 06:47:03;;;;;;;19.97;18.00;;;5.10;99.90;;;;;;5094404;28;20465;-69
2022/09/30 06:49:30;;;;;;;20.73;18.67;;;5.20;99.90;;;;;;5093751;28;20485;-66
2022/09/30 06:51:59;;;;;;;22.37;20.50;;;5.20;99.90;;;;;;5093613;28;20465;-66
2022/09/30 06:54:27;;;;;;;24.67;22.23;;;5.30;99.90;;;;;;5092142;28;20790;-67
2022/09/30 06:56:54;;;;;;;21.10;19.30;;;5.50;99.90;;;;;;5094797;28;20462;-67
2022/09/30 06:59:23;;;;;;;22.23;20.17;;;5.60;99.90;;;;;;5092530;28;20501;-67
2022/09/30 07:01:52;;;;;;;23.80;21.70;;;5.60;99.90;;;;;;5096088;28;20796;-67
2022/09/30 07:04:19;;;;;;;22.73;20.83;;;5.80;99.90;;;;;;5095662;28;20472;-67
2022/09/30 07:06:46;;;;;;;23.93;20.40;;;6.00;99.90;;;;;;5104444;28;20459;-67
2022/09/30 07:09:13;;;;;;;22.10;20.03;;;6.20;99.90;;;;;;5093819;28;20512;-67
2022/09/30 07:11:39;;;;;;;22.23;20.33;;;6.40;99.90;;;;;;5093672;28;20462;-67
2022/09/30 07:14:07;;;;;;;24.97;20.43;;;6.50;99.90;;;;;;5097018;28;20990;-67
2022/09/30 07:16:37;;;;;;;22.70;20.50;;;6.70;99.90;;;;;;5091654;28;20474;-67
2022/09/30 07:19:05;;;;;;;22.63;20.63;;;6.80;99.90;;;;;;5099720;28;20481;-68
2022/09/30 07:21:32;;;;;;;22.80;20.57;;;6.90;99.90;;;;;;5096291;28;20465;-69
2022/09/30 07:24:00;;;;;;;25.17;20.97;;;7.10;99.90;;;;;;5099064;28;20464;-68
2022/09/30 07:26:29;;;;;;;30.10;21.87;;;7.20;99.90;;;;;;5092805;28;20462;-69
2022/09/30 07:28:59;;;;;;;23.80;21.30;;;7.40;99.90;;;;;;5092685;28;20538;-69
2022/09/30 07:31:27;;;;;;;27.00;23.03;;;7.50;99.90;;;;;;5094028;28;20458;-69
2022/09/30 07:33:56;;;;;;;34.97;24.30;;;7.70;99.90;;;;;;5101990;28;20554;-68
2022/09/30 07:36:26;;;;;;;32.10;24.73;;;7.80;99.90;;;;;;5097516;28;20556;-69
2022/09/30 07:38:53;;;;;;;31.17;24.07;;;7.80;99.90;;;;;;5098502;28;20475;-68
2022/09/30 07:41:26;;;;;;;34.50;24.97;;;7.90;99.90;;;;;;5093368;28;20519;-70
2022/09/30 07:43:54;;;;;;;37.93;25.17;;;8.00;99.90;;;;;;5095410;28;20460;-69
2022/09/30 07:46:24;;;;;;;40.97;28.80;;;8.20;99.90;;;;;;5090426;28;20462;-70
2022/09/30 07:48:53;;;;;;;36.03;26.83;;;8.30;99.90;;;;;;5103122;28;20559;-69
2022/09/30 07:51:23;;;;;;;40.60;28.93;;;8.50;99.90;;;;;;5096482;28;20461;-69
2022/09/30 07:53:51;;;;;;;44.23;24.37;;;8.60;99.90;;;;;;5094869;28;20757;-68
2022/09/30 07:56:19;;;;;;;36.30;24.23;;;8.70;99.90;;;;;;5091413;28;20458;-68
2022/09/30 07:58:46;;;;;;;34.80;24.47;;;8.80;99.90;;;;;;5099409;28;20527;-70
2022/09/30 08:01:15;;;;;;;38.73;24.60;;;8.90;99.90;;;;;;5097411;28;20511;-69
2022/09/30 08:03:44;;;;;;;40.90;26.90;;;9.00;99.90;;;;;;5093698;28;20462;-70
2022/09/30 08:06:13;;;;;;;28.70;25.40;;;9.10;99.90;;;;;;5093170;28;20981;-69
2022/09/30 08:08:42;;;;;;;38.93;26.60;;;9.20;99.90;;;;;;5091601;28;20481;-68
2022/09/30 08:11:10;;;;;;;45.40;28.90;;;9.40;99.90;;;;;;5096000;28;20461;-68
2022/09/30 08:13:36;;;;;;;64.47;25.90;;;9.40;99.90;;;;;;5092537;28;20478;-70
2022/09/30 08:16:04;;;;;;;36.97;25.70;;;9.40;99.90;;;;;;5092217;28;20458;-70
2022/09/30 08:18:31;;;;;;;54.40;28.00;;;9.40;99.90;;;;;;5101159;28;20539;-68
2022/09/30 08:21:05;;;;;;;34.43;25.97;;;9.50;99.90;;;;;;5099067;28;20459;-68
2022/09/30 08:23:32;;;;;;;36.67;24.77;;;9.70;99.90;;;;;;5095707;28;20473;-68
2022/09/30 08:26:06;;;;;;;51.40;26.27;;;9.80;99.90;;;;;;5093296;28;20459;-68
2022/09/30 08:28:34;;;;;;;38.13;27.43;;;9.80;99.90;;;;;;5091777;28;20492;-70
2022/09/30 08:31:06;;;;;;;37.70;26.63;;;10.00;99.90;;;;;;5096533;28;20462;-68
2022/09/30 08:33:34;;;;;;;33.23;27.50;;;10.20;99.90;;;;;;5096155;28;20480;-70
2022/09/30 08:36:05;;;;;;;30.50;27.20;;;10.30;99.90;;;;;;5096152;28;20483;-68
2022/09/30 08:38:32;;;;;;;34.57;26.40;;;10.40;99.90;;;;;;5094816;28;20466;-68
2022/09/30 08:41:15;;;;;;;36.13;26.30;;;10.50;99.90;;;;;;5097347;28;20457;-68
2022/09/30 08:43:54;;;;;;;32.13;27.10;;;10.60;99.90;;;;;;5090432;28;20489;-69
2022/09/30 08:46:33;;;;;;;32.90;27.60;;;10.70;99.90;;;;;;5090561;28;20469;-68
2022/09/30 08:49:09;;;;;;;32.63;28.10;;;10.80;99.90;;;;;;5089649;28;20868;-70
2022/09/30 08:51:39;;;;;;;38.47;29.20;;;10.90;99.90;;;;;;5093698;28;20458;-69
2022/09/30 08:54:11;;;;;;;36.70;30.20;;;11.00;99.90;;;;;;5095124;28;20465;-69
2022/09/30 08:56:39;;;;;;;35.97;29.00;;;11.10;99.90;;;;;;5096272;28;20456;-70
2022/09/30 08:59:13;;;;;;;33.33;27.30;;;11.20;99.90;;;;;;5093961;28;20516;-71
2022/09/30 09:01:44;;;;;;;37.47;28.47;;;11.30;99.90;;;;;;5095293;28;20889;-69
2022/09/30 09:04:13;;;;;;;34.00;25.70;;;11.40;99.90;;;;;;5092927;28;20457;-69
2022/09/30 09:06:51;;;;;;;36.30;28.17;;;11.50;99.90;;;;;;5089116;28;20587;-67
2022/09/30 09:09:31;;;;;;;36.40;29.07;;;11.60;99.90;;;;;;5094069;28;20480;-67
2022/09/30 09:12:08;;;;;;;38.13;28.93;;;11.80;99.90;;;;;;5096570;28;20468;-68
2022/09/30 09:14:48;;;;;;;38.10;30.07;;;12.00;99.90;;;;;;5097113;28;20477;-68
2022/09/30 09:17:28;;;;;;;43.13;32.67;;;12.20;99.90;;;;;;5082755;28;20465;-68
2022/09/30 09:20:02;;;;;;;37.73;31.33;;;12.20;99.90;;;;;;5086197;28;20824;-69
2022/09/30 09:22:31;;;;;;;33.00;29.23;;;12.30;99.90;;;;;;5090384;28;20461;-69
2022/09/30 09:25:00;;;;;;;34.30;29.87;;;12.40;99.90;;;;;;5089163;28;20457;-69
2022/09/30 09:27:37;;;;;;;32.50;29.10;;;12.50;99.90;;;;;;5088413;28;20462;-69
2022/09/30 09:30:07;;;;;;;41.43;31.70;;;12.60;99.90;;;;;;5091539;28;20531;-67
2022/09/30 09:32:35;;;;;;;35.33;31.10;;;12.70;99.90;;;;;;5090781;28;20457;-67
2022/09/30 09:35:12;;;;;;;34.87;28.17;;;12.80;99.90;;;;;;5093288;28;21161;-70
2022/09/30 09:40:40;;;;;;;32.10;28.57;;;13.30;99.90;;;;;;5096960;28;20563;-70
2022/09/30 09:43:20;;;;;;;31.60;28.40;;;14.00;99.90;;;;;;5091178;28;20461;-70
2022/09/30 09:45:59;;;;;;;30.17;27.37;;;14.80;99.90;;;;;;5096835;28;20878;-68
2022/09/30 09:48:26;;;;;;;28.40;25.90;;;15.40;99.90;;;;;;5087675;28;20552;-68
2022/09/30 09:51:01;;;;;;;26.27;24.23;;;15.90;99.90;;;;;;5094895;28;20466;-67
2022/09/30 09:53:47;;;;;;;27.40;25.00;;;16.20;99.90;;;;;;5092518;28;20871;-68
2022/09/30 09:56:18;;;;;;;27.70;25.30;;;16.50;99.90;;;;;;5094437;28;20944;-69
2022/09/30 09:59:09;;;;;;;26.60;24.23;;;17.00;99.90;;;;;;5093347;28;20469;-67
2022/09/30 10:01:38;;;;;;;27.07;24.63;;;17.20;99.90;;;;;;5092107;28;20806;-68
2022/09/30 10:04:19;;;;;;;29.13;26.80;;;17.20;99.90;;;;;;5090537;28;20815;-70
2022/09/30 10:06:52;;;;;;;28.00;25.70;;;16.80;99.90;;;;;;5098316;28;20463;-68
2022/09/30 10:09:28;;;;;;;28.23;25.87;;;17.30;99.90;;;;;;5091492;28;20470;-68
2022/09/30 10:12:29;;;;;;;29.47;27.03;;;17.10;99.90;;;;;;5091917;28;20453;-68
2022/09/30 10:15:02;;;;;;;26.77;24.60;;;16.90;99.90;;;;;;5093959;28;20473;-70
2022/09/30 10:17:31;;;;;;;26.50;24.50;;;17.10;99.90;;;;;;5094116;28;20470;-70
2022/09/30 10:20:03;;;;;;;30.23;27.73;;;17.10;99.90;;;;;;5095139;28;20481;-69
2022/09/30 10:22:32;;;;;;;27.40;25.20;;;17.30;99.90;;;;;;5094006;28;20458;-71
2022/09/30 10:25:23;;;;;;;29.13;26.63;;;17.70;99.90;;;;;;5095616;28;21035;-68
2022/09/30 10:27:54;;;;;;;28.57;26.27;;;17.30;99.90;;;;;;5093553;28;20545;-70
2022/09/30 10:30:50;;;;;;;28.50;25.60;;;17.50;99.90;;;;;;5093065;28;20465;-70
2022/09/30 10:33:28;;;;;;;27.67;25.27;;;17.40;99.90;;;;;;5098450;28;21152;-71
2022/09/30 10:36:06;;;;;;;27.43;24.83;;;17.70;99.90;;;;;;5093027;28;20817;-69
2022/09/30 10:38:35;;;;;;;26.53;24.60;;;18.00;99.90;;;;;;5092588;28;20462;-68
2022/09/30 10:41:03;;;;;;;26.90;24.67;;;17.70;99.90;;;;;;5093230;28;20485;-72
2022/09/30 10:43:39;;;;;;;25.47;23.47;;;17.30;99.90;;;;;;5093002;28;20450;-71
2022/09/30 10:46:09;;;;;;;24.73;22.93;;;17.70;99.90;;;;;;5093162;28;20454;-70
2022/09/30 10:51:29;;;;;;;23.63;21.90;;;17.30;99.90;;;;;;5096492;28;20457;-68
2022/09/30 10:53:58;;;;;;;24.30;22.50;;;17.00;99.90;;;;;;5092110;28;20445;-69
2022/09/30 10:56:45;;;;;;;24.87;22.97;;;16.70;99.90;;;;;;5090810;28;20457;-69
2022/09/30 10:59:28;;;;;;;23.70;22.00;;;16.60;99.90;;;;;;5095122;28;20679;-70
2022/09/30 11:02:04;;;;;;;22.40;20.80;;;16.40;99.90;;;;;;5092285;28;20469;-69
2022/09/30 11:04:37;;;;;;;21.00;19.63;;;16.80;99.90;;;;;;5090111;28;20490;-71
2022/09/30 11:07:26;;;;;;;21.90;20.40;;;16.80;99.90;;;;;;5089341;28;21092;-71
2022/09/30 11:09:58;;;;;;;20.63;19.30;;;17.80;99.90;;;;;;5095473;28;20511;-71
2022/09/30 11:12:32;;;;;;;21.30;19.80;;;18.60;99.90;;;;;;5096672;28;20443;-69
2022/09/30 11:15:07;;;;;;;20.43;19.03;;;19.00;99.90;;;;;;5088777;28;21072;-69
2022/09/30 11:17:42;;;;;;;19.90;18.70;;;19.80;99.90;;;;;;5089671;28;20465;-69
2022/09/30 11:20:19;;;;;;;20.33;18.87;;;20.30;99.90;;;;;;5094207;28;20476;-69
2022/09/30 11:22:53;;;;;;;21.57;19.83;;;20.20;99.90;;;;;;5091696;28;20466;-69
2022/09/30 11:25:31;;;;;;;20.20;18.87;;;20.50;99.90;;;;;;5094851;28;20827;-68
2022/09/30 11:28:31;;;;;;;20.17;18.97;;;20.40;99.90;;;;;;5096995;28;20994;-69
2022/09/30 11:31:08;;;;;;;20.27;18.87;;;20.70;99.90;;;;;;5091729;28;20457;-69
2022/09/30 11:33:50;;;;;;;20.70;19.40;;;20.90;99.90;;;;;;5096127;28;20468;-70
2022/09/30 11:36:26;;;;;;;21.03;19.70;;;21.00;99.90;;;;;;5092417;28;20462;-69
2022/09/30 11:39:05;;;;;;;20.63;18.90;;;21.00;99.90;;;;;;5089683;28;20461;-70
2022/09/30 11:41:36;;;;;;;21.30;19.53;;;21.50;99.90;;;;;;5093984;28;20488;-69
2022/09/30 11:44:14;;;;;;;20.40;18.93;;;21.40;99.90;;;;;;5095933;28;20487;-68
2022/09/30 11:47:07;;;;;;;21.80;20.40;;;21.80;99.90;;;;;;5091683;28;20485;-69
2022/09/30 11:50:04;;;;;;;21.57;20.23;;;22.30;99.90;;;;;;5092157;28;20473;-69
2022/09/30 11:52:40;;;;;;;21.10;19.80;;;22.40;98.90;;;;;;5092357;28;21029;-71
2022/09/30 11:55:26;;;;;;;21.00;19.60;;;21.80;98.30;;;;;;5095412;28;20453;-68
2022/09/30 11:58:00;;;;;;;21.17;19.77;;;21.50;98.60;;;;;;5096929;28;20479;-71
2022/09/30 12:00:30;;;;;;;21.73;20.17;;;21.50;99.00;;;;;;5091579;28;20591;-69
2022/09/30 12:03:00;;;;;;;21.00;19.60;;;21.80;98.30;;;;;;5092546;28;20527;-70
2022/09/30 12:05:35;;;;;;;19.90;18.70;;;22.20;96.90;;;;;;5085225;28;20466;-70
2022/09/30 12:08:06;;;;;;;21.97;20.57;;;22.00;96.90;;;;;;5095337;28;20465;-69
2022/09/30 12:10:38;;;;;;;22.17;20.70;;;21.50;98.50;;;;;;5095196;28;20728;-71
2022/09/30 12:13:12;;;;;;;23.67;22.07;;;21.70;97.10;;;;;;5091406;28;20454;-70
2022/09/30 12:15:41;;;;;;;24.53;22.73;;;21.80;97.10;;;;;;5094244;28;20514;-70
2022/09/30 12:18:14;;;;;;;22.30;20.90;;;21.50;98.70;;;;;;5097199;28;20494;-72
2022/09/30 12:20:47;;;;;;;23.30;21.73;;;21.60;97.20;;;;;;5095166;28;20576;-71
2022/09/30 12:23:19;;;;;;;23.07;21.57;;;21.30;98.30;;;;;;5094016;28;20730;-70
2022/09/30 12:25:51;;;;;;;23.30;21.70;;;21.40;97.20;;;;;;5092211;28;20463;-70
2022/09/30 12:31:29;;;;;;;22.60;21.30;;;21.50;97.20;;;;;;5090752;28;20818;-70
2022/09/30 12:34:07;;;;;;;22.37;20.97;;;21.90;95.70;;;;;;5091408;28;20973;-70
2022/09/30 12:36:50;;;;;;;21.80;20.40;;;21.80;95.10;;;;;;5096093;28;20470;-73
2022/09/30 12:39:57;;;;;;;25.43;23.73;;;21.50;96.40;;;;;;5091137;28;20470;-71
2022/09/30 12:42:49;;;;;;;23.50;21.90;;;21.40;97.50;;;;;;5090346;28;20484;-73
2022/09/30 12:45:35;;;;;;;22.20;20.83;;;21.50;96.60;;;;;;5094975;28;20466;-70
2022/09/30 12:48:07;;;;;;;23.87;22.23;;;21.80;95.80;;;;;;5087782;28;20488;-72
2022/09/30 12:50:40;;;;;;;22.50;21.10;;;22.60;95.80;;;;;;5093762;28;20496;-68
2022/09/30 12:53:17;;;;;;;22.00;20.70;;;22.80;93.10;;;;;;5098304;28;20454;-70
2022/09/30 12:55:44;;;;;;;24.07;22.47;;;23.00;93.50;;;;;;5091278;28;20462;-71
2022/09/30 12:58:21;;;;;;;23.87;21.97;;;22.80;93.50;;;;;;5092558;28;20956;-70
2022/09/30 13:01:01;;;;;;;23.50;21.73;;;22.80;93.40;;;;;;5101666;28;20544;-69
2022/09/30 13:03:28;;;;;;;22.67;20.87;;;21.90;92.30;;;;;;5093154;28;20457;-68
2022/09/30 13:06:05;;;;;;;21.97;20.67;;;20.90;94.10;;;;;;5091127;28;20940;-68
2022/09/30 13:09:04;;;;;;;21.87;20.57;;;21.30;94.00;;;;;;5092518;28;20460;-71